Terminal Aerodrome Forecast
Issued by NWS Cleveland, OH

Home | Current Version | Previous Version | Graphics & Text | Print | Product List | Glossary Off
Versions: 1 2 3 4 5 6 7 8 9 10 11 12

000
FTUS41 KCLE 250500
TAFYNG
TAF
KYNG 250539Z 2506/2606 16008KT P6SM SCT120 BKN200
     FM251500 21015G22KT P6SM SCT050 BKN150
     FM252200 22012G20KT P6SM VCTS BKN050CB OVC120
     FM260000 22012KT P6SM SCT050 BKN200=

USA.gov is the U.S. government's official web portal to all federal, state and local government web resources and services.